Time;durP1;ratioP1;P1;durP2;ratioP2;P2;SDS_P1;SDS_P2;PMS_P1;PMS_P2;Temp;Humidity;BMP_temperature;BMP_pressure;BME280_temperature;BME280_humidity;BME280_pressure;Samples;Min_cycle;Max_cycle;Signal;HPM_P1;HPM_P2
2022/04/11 00:02:23;;;;;;;7.63;6.13;;;0.40;99.90;;;;;;5032778;28;20580;-68
2022/04/11 00:04:51;;;;;;;7.20;5.20;;;0.50;99.90;;;;;;5031302;28;20237;-69
2022/04/11 00:07:18;;;;;;;7.53;6.28;;;0.40;99.90;;;;;;5032487;28;20248;-68
2022/04/11 00:09:45;;;;;;;7.38;5.90;;;0.40;99.90;;;;;;5031316;28;20228;-68
2022/04/11 00:12:11;;;;;;;8.13;6.05;;;0.40;99.90;;;;;;5032171;28;20209;-68
2022/04/11 00:14:38;;;;;;;7.72;5.97;;;0.40;99.90;;;;;;5031797;28;20209;-68
2022/04/11 00:17:05;;;;;;;10.05;6.35;;;0.40;99.90;;;;;;5107698;22;20228;-74
2022/04/11 00:19:31;;;;;;;11.13;6.68;;;0.40;99.90;;;;;;5047073;28;20557;-73
2022/04/11 00:21:59;;;;;;;10.73;6.88;;;0.40;99.90;;;;;;5052133;28;20208;-73
2022/04/11 00:24:26;;;;;;;7.82;6.10;;;0.40;99.90;;;;;;5051618;28;20205;-73
2022/04/11 00:26:53;;;;;;;12.00;6.43;;;0.40;99.90;;;;;;5040855;28;20230;-73
2022/04/11 00:29:19;;;;;;;6.50;5.90;;;0.40;99.90;;;;;;5032973;28;20229;-72
2022/04/11 00:31:46;;;;;;;6.55;5.60;;;0.40;99.90;;;;;;5033526;28;20197;-75
2022/04/11 00:34:13;;;;;;;8.18;6.80;;;0.30;99.90;;;;;;5033736;28;20240;-74
2022/04/11 00:36:39;;;;;;;6.72;5.30;;;0.40;99.90;;;;;;5032865;28;20713;-73
2022/04/11 00:39:07;;;;;;;7.78;6.88;;;0.30;99.90;;;;;;5031811;28;20688;-73
2022/04/11 00:41:34;;;;;;;7.65;6.00;;;0.30;99.90;;;;;;5032995;28;20225;-73
2022/04/11 00:44:01;;;;;;;7.63;6.30;;;0.30;99.90;;;;;;5032494;28;20835;-73
2022/04/11 00:46:27;;;;;;;7.05;6.35;;;0.30;99.90;;;;;;5032527;28;20713;-73
2022/04/11 00:48:54;;;;;;;7.25;5.95;;;0.30;99.90;;;;;;5032064;28;20209;-74
2022/04/11 00:51:23;;;;;;;10.00;6.68;;;0.20;99.90;;;;;;5033459;28;20209;-74
2022/04/11 00:53:52;;;;;;;7.28;6.55;;;0.20;99.90;;;;;;5034452;28;20240;-75
2022/04/11 00:56:20;;;;;;;5.78;5.18;;;0.20;99.90;;;;;;5034568;28;20709;-74
2022/04/11 00:58:48;;;;;;;7.03;6.32;;;0.20;99.90;;;;;;5033797;28;20664;-74
2022/04/11 01:01:16;;;;;;;9.02;6.10;;;0.10;99.90;;;;;;5033509;28;20197;-73
2022/04/11 01:03:43;;;;;;;7.13;6.03;;;0.10;99.90;;;;;;5033622;28;20230;-74
2022/04/11 01:06:10;;;;;;;6.82;5.88;;;0.10;99.90;;;;;;5034146;28;20221;-72
2022/04/11 01:08:37;;;;;;;12.57;6.32;;;0.10;99.90;;;;;;5034251;28;20229;-74
2022/04/11 01:11:04;;;;;;;8.48;6.47;;;0.10;99.90;;;;;;5034300;28;20229;-74
2022/04/11 01:13:32;;;;;;;7.35;6.40;;;0.00;99.90;;;;;;5033769;28;20217;-75
2022/04/11 01:16:01;;;;;;;7.95;5.85;;;0.00;99.90;;;;;;5033356;28;20590;-75
2022/04/11 01:18:28;;;;;;;5.93;5.30;;;0.10;99.90;;;;;;5032627;28;20665;-73
2022/04/11 01:20:55;;;;;;;6.50;5.90;;;0.00;99.90;;;;;;5033006;28;20508;-72
2022/04/11 01:23:23;;;;;;;7.95;5.88;;;0.00;99.90;;;;;;5033041;28;20202;-75
2022/04/11 01:25:50;;;;;;;9.93;6.32;;;0.00;99.90;;;;;;5032525;28;20602;-74
2022/04/11 01:28:18;;;;;;;9.63;6.28;;;0.00;99.90;;;;;;5031945;28;20193;-74
2022/04/11 01:30:44;;;;;;;6.13;5.53;;;0.00;99.90;;;;;;5031812;28;20287;-73
2022/04/11 01:33:20;;;;;;;7.35;6.25;;;-0.10;99.90;;;;;;5032483;28;20205;-73
2022/04/11 01:35:47;;;;;;;8.23;6.50;;;-0.10;99.90;;;;;;5032118;28;20344;-74
2022/04/11 01:38:13;;;;;;;7.95;6.18;;;-0.10;99.90;;;;;;5031609;28;20296;-72
2022/04/11 01:40:49;;;;;;;12.35;6.20;;;-0.10;99.90;;;;;;5032534;28;20194;-73
2022/04/11 01:43:16;;;;;;;7.20;6.18;;;-0.10;99.90;;;;;;5031806;28;20212;-73
2022/04/11 01:45:42;;;;;;;7.18;5.68;;;-0.10;99.90;;;;;;5031799;28;20209;-73
2022/04/11 01:48:09;;;;;;;7.38;6.00;;;-0.10;99.90;;;;;;5031064;28;20340;-72
2022/04/11 01:50:36;;;;;;;7.78;6.25;;;0.00;99.90;;;;;;5030903;28;20229;-73
2022/04/11 01:53:05;;;;;;;9.88;5.90;;;0.00;99.90;;;;;;5031692;28;20202;-73
2022/04/11 01:55:32;;;;;;;6.30;5.50;;;-0.10;99.90;;;;;;5031416;28;20228;-74
2022/04/11 01:58:00;;;;;;;7.68;6.25;;;-0.10;99.90;;;;;;5031458;28;20242;-72
2022/04/11 02:00:27;;;;;;;7.88;6.35;;;-0.10;99.90;;;;;;5031855;28;20202;-73
2022/04/11 02:02:54;;;;;;;6.40;5.75;;;-0.10;99.90;;;;;;5032013;28;20206;-73
2022/04/11 02:05:21;;;;;;;7.43;6.25;;;-0.10;99.90;;;;;;5031277;28;20742;-73
2022/04/11 02:07:47;;;;;;;8.43;6.70;;;0.00;99.90;;;;;;5031184;28;20225;-73
2022/04/11 02:10:14;;;;;;;10.10;5.80;;;0.00;99.90;;;;;;5030638;28;20228;-73
2022/04/11 02:12:41;;;;;;;6.47;5.97;;;0.00;99.90;;;;;;5031034;28;20202;-71
2022/04/11 02:15:10;;;;;;;7.35;5.80;;;0.00;99.90;;;;;;5031258;28;20751;-73
2022/04/11 02:17:37;;;;;;;7.32;6.72;;;0.10;99.90;;;;;;5030957;28;20229;-73
2022/04/11 02:20:05;;;;;;;10.10;6.15;;;0.10;99.90;;;;;;5030755;28;20198;-74
2022/04/11 02:22:44;;;;;;;7.30;6.68;;;0.20;99.90;;;;;;5031129;28;20225;-75
2022/04/11 02:25:10;;;;;;;7.05;6.35;;;0.20;99.90;;;;;;5031060;28;20205;-73
2022/04/11 02:27:37;;;;;;;6.88;5.50;;;0.20;99.90;;;;;;5031571;28;20226;-71
2022/04/11 02:30:05;;;;;;;7.55;6.60;;;0.30;99.90;;;;;;5030094;28;20717;-73
2022/04/11 02:32:33;;;;;;;6.32;5.72;;;0.30;99.90;;;;;;5031216;28;20206;-73
2022/04/11 02:35:00;;;;;;;6.32;5.72;;;0.30;99.90;;;;;;5030719;28;20692;-73
2022/04/11 02:37:26;;;;;;;7.43;6.65;;;0.30;99.90;;;;;;5031215;28;20221;-73
2022/04/11 02:39:53;;;;;;;7.50;6.50;;;0.30;99.90;;;;;;5030284;28;20692;-74
2022/04/11 02:42:22;;;;;;;7.47;6.68;;;0.30;99.90;;;;;;5030588;28;20216;-74
2022/04/11 02:44:48;;;;;;;6.20;5.40;;;0.30;99.90;;;;;;5031052;28;20560;-73
2022/04/11 02:47:15;;;;;;;7.25;6.35;;;0.30;99.90;;;;;;5030499;28;20935;-73
2022/04/11 02:49:43;;;;;;;7.22;6.40;;;0.30;99.90;;;;;;5030218;28;20267;-74
2022/04/11 02:52:10;;;;;;;9.52;6.38;;;0.30;99.90;;;;;;5030432;28;20210;-75
2022/04/11 02:54:37;;;;;;;9.70;6.60;;;0.30;99.90;;;;;;5030680;28;20607;-74
2022/04/11 02:57:05;;;;;;;7.13;6.43;;;0.40;99.90;;;;;;5030742;28;20234;-75
2022/04/11 02:59:33;;;;;;;11.68;6.85;;;0.40;99.90;;;;;;5029917;28;20212;-73
2022/04/11 03:02:00;;;;;;;10.70;6.40;;;0.40;99.90;;;;;;5030723;28;20209;-73
2022/04/11 03:04:27;;;;;;;9.38;6.75;;;0.40;99.90;;;;;;5030195;28;20228;-74
2022/04/11 03:06:55;;;;;;;7.50;6.78;;;0.40;99.90;;;;;;5030578;28;20650;-73
2022/04/11 03:09:22;;;;;;;7.68;6.22;;;0.40;99.90;;;;;;5029844;28;20209;-73
2022/04/11 03:11:49;;;;;;;9.40;6.78;;;0.40;99.90;;;;;;5030297;28;20651;-73
2022/04/11 03:14:16;;;;;;;10.00;7.13;;;0.40;99.90;;;;;;5030447;28;20213;-73
2022/04/11 03:16:43;;;;;;;6.95;6.13;;;0.50;99.90;;;;;;5030397;28;20234;-72
2022/04/11 03:19:10;;;;;;;8.85;6.55;;;0.50;99.90;;;;;;5030843;28;20210;-72
2022/04/11 03:21:37;;;;;;;7.22;6.32;;;0.50;99.90;;;;;;5039827;28;20202;-74
2022/04/11 03:24:06;;;;;;;8.82;6.95;;;0.50;99.90;;;;;;5040487;28;20638;-74
2022/04/11 03:26:32;;;;;;;7.50;6.70;;;0.50;99.90;;;;;;5040413;28;20221;-75
2022/04/11 03:28:59;;;;;;;6.85;6.07;;;0.50;99.90;;;;;;5038110;28;20202;-74
2022/04/11 03:31:26;;;;;;;8.02;6.97;;;0.50;99.90;;;;;;5034213;28;20229;-72
2022/04/11 03:33:54;;;;;;;7.95;6.65;;;0.50;99.90;;;;;;5028543;28;20194;-74
2022/04/11 03:36:21;;;;;;;8.32;7.18;;;0.50;99.90;;;;;;5023861;28;20218;-72
2022/04/11 03:38:48;;;;;;;7.28;6.65;;;0.50;99.90;;;;;;5018916;28;20197;-74
2022/04/11 03:41:16;;;;;;;10.82;6.97;;;0.60;99.90;;;;;;5019711;28;20289;-73
2022/04/11 03:43:43;;;;;;;11.57;7.60;;;0.60;99.90;;;;;;5018615;28;20206;-73
2022/04/11 03:46:09;;;;;;;7.78;7.03;;;0.60;99.90;;;;;;5018807;28;20831;-74
2022/04/11 03:48:36;;;;;;;9.45;7.45;;;0.60;99.90;;;;;;5019851;28;20230;-74
2022/04/11 03:51:03;;;;;;;7.80;6.97;;;0.60;99.90;;;;;;5018182;28;20215;-74
2022/04/11 03:53:29;;;;;;;7.45;6.72;;;0.60;99.90;;;;;;5019044;28;20205;-73
2022/04/11 03:55:56;;;;;;;10.27;7.18;;;0.60;99.90;;;;;;5017307;28;20214;-75
2022/04/11 03:58:24;;;;;;;9.75;7.35;;;0.60;99.90;;;;;;5028694;28;20209;-74
2022/04/11 04:00:51;;;;;;;9.27;6.60;;;0.50;99.90;;;;;;5024854;28;20252;-74
2022/04/11 04:03:17;;;;;;;7.22;6.50;;;0.60;99.90;;;;;;5022154;28;20193;-73
2022/04/11 04:05:46;;;;;;;8.65;6.80;;;0.50;99.90;;;;;;5018368;28;20207;-73
2022/04/11 04:08:17;;;;;;;9.75;6.97;;;0.50;99.90;;;;;;5017686;28;21078;-74
2022/04/11 04:10:45;;;;;;;7.90;7.10;;;0.50;99.90;;;;;;5016882;28;20633;-73
2022/04/11 04:13:11;;;;;;;8.65;6.38;;;0.50;99.90;;;;;;5020188;28;20289;-75
2022/04/11 04:15:39;;;;;;;10.65;6.82;;;0.50;99.90;;;;;;5021040;28;20195;-74
2022/04/11 04:18:06;;;;;;;10.63;7.20;;;0.40;99.90;;;;;;5013267;28;20221;-73
2022/04/11 04:20:33;;;;;;;7.75;6.57;;;0.50;99.90;;;;;;5013439;28;20289;-73
2022/04/11 04:23:00;;;;;;;10.63;8.13;;;0.40;99.90;;;;;;5016191;28;20593;-73
2022/04/11 04:25:27;;;;;;;8.48;6.32;;;0.50;99.90;;;;;;5013274;28;20218;-73
2022/04/11 04:27:53;;;;;;;9.95;6.45;;;0.40;99.90;;;;;;5013235;28;20582;-73
2022/04/11 04:30:20;;;;;;;8.05;7.18;;;0.40;99.90;;;;;;5012661;28;20716;-74
2022/04/11 04:32:48;;;;;;;8.77;6.75;;;0.40;99.90;;;;;;5013364;28;20202;-76
2022/04/11 04:35:15;;;;;;;10.13;7.75;;;0.40;99.90;;;;;;5013331;28;20269;-75
2022/04/11 04:37:42;;;;;;;7.93;6.65;;;0.50;99.90;;;;;;5013460;28;20606;-74
2022/04/11 04:40:10;;;;;;;8.32;7.15;;;0.40;99.90;;;;;;5012402;28;20207;-73
2022/04/11 04:42:37;;;;;;;7.88;7.07;;;0.40;99.90;;;;;;5013508;28;20237;-72
2022/04/11 04:45:05;;;;;;;8.55;7.50;;;0.40;99.90;;;;;;5012972;28;20666;-73
2022/04/11 04:47:31;;;;;;;9.50;8.25;;;0.30;99.90;;;;;;5013209;28;20218;-72
2022/04/11 04:50:00;;;;;;;9.05;8.15;;;0.30;99.90;;;;;;5012469;28;20205;-74
2022/04/11 04:52:27;;;;;;;10.65;8.43;;;0.30;99.90;;;;;;5012824;28;20226;-74
2022/04/11 04:54:53;;;;;;;8.38;7.47;;;0.30;99.90;;;;;;5013611;28;20689;-73
2022/04/11 04:57:20;;;;;;;9.30;8.38;;;0.30;99.90;;;;;;5012624;28;20218;-74
2022/04/11 04:59:47;;;;;;;8.52;7.60;;;0.30;99.90;;;;;;5012649;28;20214;-75
2022/04/11 05:02:14;;;;;;;9.75;8.05;;;0.30;99.90;;;;;;5012686;28;20194;-73
2022/04/11 05:04:41;;;;;;;10.40;8.40;;;0.20;99.90;;;;;;5013009;28;20202;-72
2022/04/11 05:07:09;;;;;;;8.50;7.00;;;0.20;99.90;;;;;;5012692;28;20625;-74
2022/04/11 05:09:35;;;;;;;16.23;8.27;;;0.20;99.90;;;;;;5012126;28;20217;-76
2022/04/11 05:12:02;;;;;;;8.40;7.40;;;0.20;99.90;;;;;;5012713;28;20273;-74
2022/04/11 05:14:29;;;;;;;9.57;8.05;;;0.20;99.90;;;;;;5012468;28;20202;-74
2022/04/11 05:16:55;;;;;;;10.43;7.40;;;0.20;99.90;;;;;;5012414;28;20233;-73
2022/04/11 05:19:22;;;;;;;11.02;7.70;;;0.10;99.90;;;;;;5011559;28;20690;-74
2022/04/11 05:21:49;;;;;;;9.88;7.57;;;0.10;99.90;;;;;;5012761;28;20198;-73
2022/04/11 05:24:17;;;;;;;11.23;7.88;;;0.10;99.90;;;;;;5012221;28;20210;-74
2022/04/11 05:26:43;;;;;;;9.65;8.07;;;0.20;99.90;;;;;;5012415;28;20222;-73
2022/04/11 05:29:11;;;;;;;9.73;8.00;;;0.20;99.90;;;;;;5011910;28;20228;-74
2022/04/11 05:31:37;;;;;;;11.00;7.82;;;0.20;99.90;;;;;;5012308;28;20604;-74
2022/04/11 05:34:05;;;;;;;8.73;7.25;;;0.20;99.90;;;;;;5012557;28;20205;-74
2022/04/11 05:36:32;;;;;;;9.30;7.50;;;0.30;99.90;;;;;;5011948;28;20708;-74
2022/04/11 05:38:58;;;;;;;10.32;8.93;;;0.30;99.90;;;;;;5011932;28;20202;-73
2022/04/11 05:41:27;;;;;;;9.48;8.20;;;0.40;99.90;;;;;;5011979;28;20436;-73
2022/04/11 05:43:53;;;;;;;8.98;8.07;;;0.40;99.90;;;;;;5012469;28;20213;-71
2022/04/11 05:46:20;;;;;;;11.65;7.80;;;0.50;99.90;;;;;;5012175;28;20231;-73
2022/04/11 05:48:47;;;;;;;15.82;7.75;;;0.60;99.90;;;;;;5011482;28;20662;-73
2022/04/11 05:51:14;;;;;;;9.88;7.93;;;0.60;99.90;;;;;;5011766;28;20229;-73
2022/04/11 05:53:41;;;;;;;10.10;8.55;;;0.70;99.90;;;;;;5012039;28;20202;-74
2022/04/11 05:56:09;;;;;;;11.07;8.25;;;0.80;99.90;;;;;;5011854;28;20223;-74
2022/04/11 05:58:37;;;;;;;11.25;9.55;;;0.90;99.90;;;;;;5011420;28;20233;-73
2022/04/11 06:01:04;;;;;;;10.27;8.45;;;1.00;99.90;;;;;;5011911;28;20285;-74
2022/04/11 06:03:31;;;;;;;10.10;8.07;;;1.10;99.90;;;;;;5011567;28;20214;-75
2022/04/11 06:05:58;;;;;;;9.65;7.53;;;1.20;99.90;;;;;;5011571;28;20222;-74
2022/04/11 06:08:25;;;;;;;11.27;8.38;;;1.40;99.90;;;;;;5011102;28;20198;-74
2022/04/11 06:10:51;;;;;;;9.57;7.70;;;1.40;99.90;;;;;;5011499;28;20241;-74
2022/04/11 06:13:18;;;;;;;11.20;8.68;;;1.50;99.90;;;;;;5011535;28;20218;-74
2022/04/11 06:15:46;;;;;;;12.07;8.68;;;1.70;99.90;;;;;;5011306;28;20206;-74
2022/04/11 06:18:13;;;;;;;9.85;8.65;;;1.80;99.90;;;;;;5066202;22;20228;-89
2022/04/11 06:20:40;;;;;;;10.02;8.10;;;1.90;99.90;;;;;;5058186;28;20666;-90
2022/04/11 06:23:06;;;;;;;10.75;8.30;;;2.10;99.90;;;;;;5058463;28;20209;-90
2022/04/11 06:25:33;;;;;;;12.80;9.07;;;2.20;99.90;;;;;;5058948;28;20216;-90
2022/04/11 06:28:00;;;;;;;9.65;8.65;;;2.40;99.90;;;;;;5057675;28;20249;-89
2022/04/11 06:30:26;;;;;;;13.50;8.43;;;2.50;99.90;;;;;;5058064;28;20379;-90
2022/04/11 06:32:55;;;;;;;13.63;9.50;;;2.60;99.90;;;;;;5057917;28;20220;-90
2022/04/11 06:35:21;;;;;;;8.57;7.65;;;2.80;99.90;;;;;;5058323;28;20205;-90
2022/04/11 06:37:49;;;;;;;10.27;7.28;;;2.90;99.90;;;;;;5058392;28;20233;-90
2022/04/11 06:40:17;;;;;;;14.52;8.20;;;3.10;99.90;;;;;;5060062;28;20221;-90
2022/04/11 06:42:43;;;;;;;10.35;7.00;;;3.20;99.90;;;;;;5077890;28;20203;-90
2022/04/11 06:45:10;;;;;;;15.38;8.30;;;3.30;99.90;;;;;;5077856;28;20185;-90
2022/04/11 06:47:37;;;;;;;9.90;7.28;;;3.50;99.90;;;;;;5077963;28;20205;-89
2022/04/11 06:50:06;;;;;;;9.75;7.47;;;3.50;99.90;;;;;;5077276;28;20289;-91
2022/04/11 06:52:45;;;;;;;9.70;7.43;;;3.70;99.90;;;;;;5068364;28;20227;-91
2022/04/11 06:55:12;;;;;;;9.88;7.32;;;3.80;99.90;;;;;;5060523;28;20212;-92
2022/04/11 06:57:45;;;;;;;11.57;7.25;;;4.00;99.90;;;;;;5059908;28;20235;-91
2022/04/11 07:00:19;;;;;;;8.65;7.68;;;4.10;99.90;;;;;;5062813;28;20204;-92
2022/04/11 07:02:47;;;;;;;9.25;7.40;;;4.30;99.90;;;;;;5067221;28;20228;-93
2022/04/11 07:05:17;;;;;;;8.23;7.43;;;4.50;99.90;;;;;;5073958;28;20200;-93
2022/04/11 07:07:45;;;;;;;13.77;8.15;;;4.70;99.90;;;;;;5072149;28;20217;-93
2022/04/11 07:10:12;;;;;;;8.27;6.80;;;4.80;99.90;;;;;;5074344;28;20201;-93
2022/04/11 07:12:41;;;;;;;8.65;7.60;;;4.90;99.90;;;;;;5076693;28;20205;-94
2022/04/11 07:15:09;;;;;;;8.55;6.80;;;4.90;99.90;;;;;;5074870;28;20224;-93
2022/04/11 07:17:37;;;;;;;8.25;7.10;;;5.00;99.90;;;;;;5074859;28;20233;-94
2022/04/11 07:20:05;;;;;;;8.25;6.78;;;5.10;99.90;;;;;;5075223;28;20249;-94
2022/04/11 07:22:33;;;;;;;7.85;7.05;;;5.20;99.90;;;;;;5060704;28;20235;-89
2022/04/11 07:25:04;;;;;;;7.22;5.90;;;5.30;99.90;;;;;;5055338;28;20205;-90
2022/04/11 07:27:32;;;;;;;7.82;6.22;;;5.40;99.90;;;;;;5057249;28;20229;-90
2022/04/11 07:29:59;;;;;;;8.88;5.70;;;5.50;99.90;;;;;;5055552;28;20239;-88
2022/04/11 07:32:26;;;;;;;6.95;5.30;;;5.60;99.90;;;;;;5056911;28;20220;-89
2022/04/11 07:34:53;;;;;;;8.00;6.10;;;5.70;99.90;;;;;;5057732;28;20618;-89
2022/04/11 07:37:20;;;;;;;8.15;6.20;;;5.80;99.90;;;;;;5054704;28;20770;-89
2022/04/11 07:39:48;;;;;;;8.35;5.68;;;5.90;99.90;;;;;;5052898;28;20224;-89
2022/04/11 07:42:16;;;;;;;9.02;5.90;;;6.10;99.90;;;;;;5054905;28;20201;-91
2022/04/11 07:44:43;;;;;;;6.50;5.90;;;6.20;99.90;;;;;;5054498;28;20288;-90
2022/04/11 07:47:10;;;;;;;6.45;5.40;;;6.40;99.90;;;;;;5059566;28;20217;-91
2022/04/11 07:49:37;;;;;;;6.97;5.53;;;6.70;99.90;;;;;;5058320;28;20247;-90
2022/04/11 07:52:05;;;;;;;9.63;5.85;;;7.00;99.90;;;;;;5059409;28;20231;-91
2022/04/11 07:54:31;;;;;;;5.63;5.10;;;7.20;99.90;;;;;;5041056;22;20677;-71
2022/04/11 07:56:59;;;;;;;5.10;4.60;;;7.60;99.90;;;;;;5011556;28;20337;-70
2022/04/11 07:59:26;;;;;;;7.93;5.05;;;8.00;99.90;;;;;;5012792;28;20209;-70
2022/04/11 08:01:53;;;;;;;5.55;5.05;;;8.50;99.90;;;;;;5012625;28;20199;-70
2022/04/11 08:04:20;;;;;;;4.70;4.15;;;9.00;99.50;;;;;;5012883;28;20202;-70
2022/04/11 08:06:47;;;;;;;6.25;4.03;;;9.40;97.20;;;;;;5012672;28;20269;-70
2022/04/11 08:09:13;;;;;;;5.97;4.75;;;9.60;96.20;;;;;;5011453;28;20740;-70
2022/04/11 08:11:40;;;;;;;5.28;4.70;;;9.90;96.40;;;;;;5012656;28;20604;-70
2022/04/11 08:14:09;;;;;;;6.70;4.32;;;10.10;96.00;;;;;;5012650;28;20209;-70
2022/04/11 08:16:35;;;;;;;5.10;4.15;;;10.40;93.90;;;;;;5010939;28;20223;-70
2022/04/11 08:19:02;;;;;;;7.20;4.72;;;10.30;94.20;;;;;;5012216;28;20202;-70
2022/04/11 08:21:29;;;;;;;4.78;4.20;;;10.50;93.60;;;;;;5012183;28;20226;-70
2022/04/11 08:23:56;;;;;;;6.22;4.15;;;10.60;93.70;;;;;;5012389;28;20207;-70
2022/04/11 08:26:22;;;;;;;7.43;4.53;;;10.90;93.90;;;;;;5012303;28;20227;-70
2022/04/11 08:28:49;;;;;;;5.45;4.07;;;11.40;93.40;;;;;;5012717;28;20202;-70
2022/04/11 08:31:17;;;;;;;5.20;4.70;;;11.90;92.70;;;;;;5033588;28;20205;-70
2022/04/11 08:33:44;;;;;;;5.25;4.18;;;12.40;93.20;;;;;;5033537;28;20296;-70
2022/04/11 08:36:11;;;;;;;6.95;4.95;;;12.90;91.50;;;;;;5022872;28;20234;-71
2022/04/11 08:38:38;;;;;;;6.20;3.97;;;13.50;92.40;;;;;;5012189;28;20264;-70
2022/04/11 08:41:05;;;;;;;4.80;4.30;;;14.20;90.90;;;;;;5011373;28;20469;-70
2022/04/11 08:43:33;;;;;;;5.50;4.30;;;14.50;90.70;;;;;;5011815;28;20457;-70
2022/04/11 08:46:05;;;;;;;6.37;4.27;;;14.60;86.20;;;;;;5010267;28;20564;-71
2022/04/11 08:48:34;;;;;;;5.80;4.53;;;14.40;87.70;;;;;;5011299;28;21191;-71
2022/04/11 08:51:01;;;;;;;4.40;3.67;;;14.90;88.00;;;;;;5011238;28;20461;-71
2022/04/11 08:53:28;;;;;;;5.63;4.30;;;15.30;89.30;;;;;;5011234;28;20872;-70
2022/04/11 08:55:54;;;;;;;5.10;4.60;;;15.50;85.20;;;;;;5011295;28;20489;-70
2022/04/11 08:58:21;;;;;;;6.43;4.57;;;15.10;85.50;;;;;;5010561;28;20461;-71
2022/04/11 09:00:48;;;;;;;4.23;3.87;;;15.30;84.80;;;;;;5010916;28;20464;-71
2022/04/11 09:03:14;;;;;;;4.83;3.70;;;15.80;87.50;;;;;;5010793;28;20511;-70
2022/04/11 09:05:42;;;;;;;7.03;4.00;;;16.10;81.40;;;;;;5011102;28;20516;-71
2022/04/11 09:08:09;;;;;;;8.27;4.20;;;16.20;83.30;;;;;;5010010;28;20465;-70
2022/04/11 09:10:37;;;;;;;6.53;4.10;;;16.20;84.70;;;;;;5010853;28;20440;-71
2022/04/11 09:13:05;;;;;;;5.73;4.20;;;16.30;80.90;;;;;;5010868;28;21026;-71
2022/04/11 09:15:41;;;;;;;4.20;3.77;;;16.50;83.30;;;;;;5010281;28;20473;-71
2022/04/11 09:18:08;;;;;;;4.63;4.00;;;17.10;81.90;;;;;;5007472;28;20544;-71
2022/04/11 09:20:34;;;;;;;4.20;3.80;;;17.60;79.30;;;;;;5002578;28;20467;-71
2022/04/11 09:23:03;;;;;;;5.43;4.03;;;17.60;78.90;;;;;;4998344;28;20816;-71
2022/04/11 09:25:31;;;;;;;4.70;3.47;;;17.90;77.50;;;;;;5009745;28;20468;-71
2022/04/11 09:28:06;;;;;;;4.60;3.57;;;18.20;79.70;;;;;;5009641;28;20864;-71
2022/04/11 09:30:34;;;;;;;5.83;3.80;;;18.00;78.50;;;;;;5009306;28;20457;-71
2022/04/11 09:33:02;;;;;;;4.53;2.97;;;18.40;76.40;;;;;;5008185;28;20484;-71
2022/04/11 09:35:32;;;;;;;3.53;3.23;;;19.30;78.90;;;;;;5008664;28;20461;-71
2022/04/11 09:38:12;;;;;;;4.23;3.70;;;20.10;73.50;;;;;;5009580;28;20462;-71
2022/04/11 09:40:40;;;;;;;3.47;3.17;;;20.10;69.50;;;;;;5011950;28;20466;-70
2022/04/11 09:43:07;;;;;;;3.30;3.00;;;19.70;72.50;;;;;;5011394;28;20945;-71
2022/04/11 09:45:43;;;;;;;3.70;2.90;;;19.50;71.50;;;;;;5010399;28;20472;-71
2022/04/11 09:48:11;;;;;;;3.60;3.17;;;19.20;70.80;;;;;;5010681;28;20515;-70
2022/04/11 09:50:37;;;;;;;3.27;2.97;;;19.10;69.20;;;;;;5010966;28;21019;-71
2022/04/11 09:53:13;;;;;;;3.50;2.80;;;19.30;68.70;;;;;;5010627;28;20504;-71
2022/04/11 09:55:41;;;;;;;3.17;2.90;;;19.30;67.50;;;;;;5010974;28;20461;-71
2022/04/11 09:58:07;;;;;;;3.97;2.93;;;19.00;66.80;;;;;;5009783;28;20500;-70
2022/04/11 10:00:35;;;;;;;4.03;2.70;;;18.90;67.80;;;;;;5010599;28;20880;-70
2022/04/11 10:03:03;;;;;;;4.67;2.80;;;19.20;69.00;;;;;;5008240;28;21328;-70
2022/04/11 10:05:30;;;;;;;4.00;3.30;;;18.80;68.80;;;;;;5008116;28;20462;-71
2022/04/11 10:07:57;;;;;;;3.20;2.60;;;18.80;66.20;;;;;;5009907;28;20584;-71
2022/04/11 10:10:25;;;;;;;3.27;2.97;;;19.20;68.90;;;;;;5008515;28;20457;-71
2022/04/11 10:12:53;;;;;;;2.90;2.40;;;19.70;69.60;;;;;;5009797;28;20531;-71
2022/04/11 10:15:21;;;;;;;2.93;2.70;;;20.00;64.30;;;;;;5009020;28;20956;-70
2022/04/11 10:17:49;;;;;;;2.90;2.70;;;19.50;65.50;;;;;;5008447;28;20493;-71
2022/04/11 10:20:24;;;;;;;3.03;2.83;;;19.70;66.10;;;;;;5029756;28;20468;-70
2022/04/11 10:22:57;;;;;;;4.30;2.83;;;20.10;69.00;;;;;;5029799;28;20546;-70
2022/04/11 10:25:25;;;;;;;2.73;2.50;;;20.80;65.10;;;;;;5029938;28;20472;-70
2022/04/11 10:28:18;;;;;;;2.80;2.60;;;21.30;66.40;;;;;;5030250;28;20872;-70
2022/04/11 10:30:45;;;;;;;4.00;2.77;;;21.50;65.10;;;;;;5029989;28;20460;-70
2022/04/11 10:33:12;;;;;;;2.70;2.30;;;21.80;63.50;;;;;;5029719;28;20488;-70
2022/04/11 10:35:44;;;;;;;3.30;3.00;;;21.60;63.30;;;;;;5029264;28;20848;-70
2022/04/11 10:38:15;;;;;;;4.00;3.00;;;21.40;64.00;;;;;;5029551;28;20466;-70
2022/04/11 10:40:49;;;;;;;3.17;2.87;;;21.00;64.80;;;;;;5029593;28;20492;-70
2022/04/11 10:43:20;;;;;;;3.20;2.83;;;20.90;66.70;;;;;;5029810;28;20830;-70
2022/04/11 10:45:57;;;;;;;4.40;3.20;;;21.70;65.60;;;;;;5029545;28;20555;-70
2022/04/11 10:48:57;;;;;;;3.67;3.13;;;21.30;62.10;;;;;;5023738;28;20468;-70
2022/04/11 10:51:24;;;;;;;4.33;2.90;;;20.80;66.00;;;;;;5009288;28;20456;-70
2022/04/11 10:54:15;;;;;;;2.97;2.53;;;21.60;66.70;;;;;;5009436;28;20571;-70
2022/04/11 10:56:53;;;;;;;3.03;2.73;;;22.80;65.60;;;;;;5008884;28;20572;-70
2022/04/11 10:59:27;;;;;;;2.70;2.50;;;24.00;65.20;;;;;;5008375;28;20456;-69
2022/04/11 11:01:59;;;;;;;2.50;2.30;;;24.00;63.40;;;;;;5010081;28;20507;-69
2022/04/11 11:04:30;;;;;;;3.27;2.73;;;24.10;62.40;;;;;;5009006;28;20846;-69
2022/04/11 11:07:29;;;;;;;3.90;2.60;;;24.30;62.00;;;;;;5009421;28;20477;-69
2022/04/11 11:09:58;;;;;;;3.70;3.07;;;23.90;63.30;;;;;;5009378;28;20968;-69
2022/04/11 11:12:27;;;;;;;3.00;2.60;;;24.10;60.30;;;;;;5008412;28;20482;-69
2022/04/11 11:14:54;;;;;;;3.60;2.70;;;24.00;60.20;;;;;;5009435;28;20457;-69
2022/04/11 11:17:20;;;;;;;3.20;2.70;;;23.70;59.80;;;;;;5008676;28;20485;-69
2022/04/11 11:20:04;;;;;;;3.33;2.77;;;23.10;59.60;;;;;;5008907;28;20874;-69
2022/04/11 11:22:33;;;;;;;3.20;2.90;;;22.50;60.70;;;;;;5009931;28;20571;-69
2022/04/11 11:25:19;;;;;;;2.83;2.53;;;22.90;58.50;;;;;;5012765;28;20515;-69
2022/04/11 11:27:49;;;;;;;2.67;2.47;;;23.00;60.60;;;;;;5013545;28;20481;-70
2022/04/11 11:30:16;;;;;;;2.70;2.50;;;23.70;60.80;;;;;;5013535;28;20492;-69
2022/04/11 11:32:43;;;;;;;5.07;2.70;;;23.70;57.70;;;;;;5014180;28;20511;-69
2022/04/11 11:35:11;;;;;;;3.33;2.67;;;23.50;61.60;;;;;;5012729;28;20497;-70
2022/04/11 11:37:38;;;;;;;3.73;2.90;;;23.80;58.60;;;;;;5013514;28;20513;-70
2022/04/11 11:40:07;;;;;;;2.70;2.37;;;23.70;60.30;;;;;;5012490;28;20469;-70
2022/04/11 11:42:38;;;;;;;2.93;2.63;;;24.50;59.80;;;;;;5013363;28;20504;-69
2022/04/11 11:45:08;;;;;;;3.13;2.70;;;24.80;57.20;;;;;;5012969;28;20964;-70
2022/04/11 11:47:35;;;;;;;2.77;2.50;;;24.60;59.90;;;;;;5012989;28;20488;-71
2022/04/11 11:50:03;;;;;;;2.60;2.40;;;24.60;59.10;;;;;;5013701;28;20556;-69
2022/04/11 11:52:30;;;;;;;3.37;3.07;;;24.60;58.60;;;;;;5013285;28;20474;-69
2022/04/11 11:54:57;;;;;;;3.27;2.80;;;24.60;58.20;;;;;;5012826;28;20471;-69
2022/04/11 11:57:27;;;;;;;3.47;2.83;;;24.30;55.60;;;;;;5012888;28;20499;-69
2022/04/11 11:59:55;;;;;;;4.00;2.63;;;23.70;59.10;;;;;;5011953;28;20473;-69
2022/04/11 12:05:18;;;;;;;2.97;2.67;;;24.00;58.50;;;;;;5010866;28;20464;-69
2022/04/11 12:07:45;;;;;;;3.60;2.90;;;24.50;58.60;;;;;;5012453;28;20496;-69
2022/04/11 12:10:12;;;;;;;3.73;2.80;;;24.20;57.40;;;;;;5010299;28;20953;-69
2022/04/11 12:12:39;;;;;;;3.20;2.97;;;24.60;59.60;;;;;;5012022;28;20463;-69
2022/04/11 12:15:08;;;;;;;3.77;3.17;;;25.10;57.70;;;;;;5012297;28;20469;-69
2022/04/11 12:49:07;;;;;;;4.10;3.33;;;24.90;56.80;;;;;;5041892;28;20479;-91
2022/04/11 12:51:36;;;;;;;3.27;2.90;;;24.70;56.80;;;;;;5034970;28;20456;-91
2022/04/11 12:54:10;;;;;;;3.10;2.80;;;24.60;56.90;;;;;;5035161;28;21056;-91
2022/04/11 12:56:45;;;;;;;3.10;2.70;;;24.70;57.70;;;;;;5034376;28;20456;-90
2022/04/11 12:59:28;;;;;;;3.17;2.50;;;25.10;56.60;;;;;;5035019;28;20484;-91
2022/04/11 13:02:10;;;;;;;3.63;2.93;;;24.90;57.50;;;;;;5034106;28;21029;-91
2022/04/11 13:04:49;;;;;;;;;;;;;;;;;;;;;
2022/04/11 13:07:21;;;;;;;3.30;2.90;;;24.90;57.50;;;;;;5046051;28;20480;-94
2022/04/11 13:13:31;;;;;;;3.33;3.03;;;25.30;58.00;;;;;;5041776;28;20452;-92
2022/04/11 13:19:35;;;;;;;5.17;2.73;;;24.40;57.00;;;;;;5037534;28;20509;-92
2022/04/11 13:28:33;;;;;;;4.67;3.50;;;24.40;55.60;;;;;;4931595;28;20517;-91
2022/04/11 13:36:42;;;;;;;6.60;3.67;;;24.40;59.30;;;;;;5000949;28;20418;-91
2022/04/11 13:39:10;;;;;;;3.60;3.23;;;24.60;58.70;;;;;;4979730;28;20478;-92
2022/04/11 13:41:37;;;;;;;3.30;3.00;;;24.90;54.60;;;;;;5014108;28;20454;-91
2022/04/11 13:44:04;;;;;;;3.53;3.20;;;24.70;57.40;;;;;;5059079;28;20495;-92
2022/04/11 13:46:31;;;;;;;5.37;3.63;;;24.30;58.10;;;;;;5054756;28;20830;-92
2022/04/11 13:49:05;;;;;;;3.10;2.90;;;24.10;58.00;;;;;;5054504;28;20479;-92
2022/04/11 13:51:32;;;;;;;3.83;3.47;;;23.90;57.40;;;;;;5055199;28;20464;-92
2022/04/11 13:53:59;;;;;;;4.00;3.40;;;23.60;58.50;;;;;;5056252;28;20542;-92